createdAt,value
2018-05-10T00:00:16.840Z,26.5
2018-05-10T00:01:07.487Z,26.4
2018-05-10T00:01:57.798Z,26.5
2018-05-10T00:02:47.313Z,26.5
2018-05-10T00:03:37.911Z,26.4
2018-05-10T00:04:27.813Z,26.5
2018-05-10T00:05:17.764Z,26.5
2018-05-10T00:06:07.828Z,26.5
2018-05-10T00:06:58.211Z,26.5
2018-05-10T00:07:48.576Z,26.5
2018-05-10T00:08:37.548Z,26.5
2018-05-10T00:09:43.017Z,26.5
2018-05-10T00:10:18.570Z,26.5
2018-05-10T00:11:07.956Z,26.5
2018-05-10T00:11:58.301Z,26.5
2018-05-10T00:12:48.089Z,26.5
2018-05-10T00:13:37.869Z,26.5
2018-05-10T00:14:27.947Z,26.5
2018-05-10T00:15:18.841Z,26.4
2018-05-10T00:16:08.076Z,26.5
2018-05-10T00:16:58.966Z,26.5
2018-05-10T00:17:48.768Z,26.5
2018-05-10T00:18:38.810Z,26.5
2018-05-10T00:19:28.614Z,26.5
2018-05-10T00:20:18.823Z,26.5
2018-05-10T00:21:08.998Z,26.5
2018-05-10T00:21:59.353Z,26.5
2018-05-10T00:22:49.126Z,26.5
2018-05-10T00:23:39.167Z,26.5
2018-05-10T00:24:29.742Z,26.5
2018-05-10T00:25:19.317Z,26.5
2018-05-10T00:26:09.417Z,26.5
2018-05-10T00:26:59.452Z,26.5
2018-05-10T00:27:49.511Z,26.5
2018-05-10T00:28:39.567Z,26.5
2018-05-10T00:29:29.669Z,26.6
2018-05-10T00:30:19.604Z,26.5
2018-05-10T00:31:09.972Z,26.5
2018-05-10T00:32:00.104Z,26.5
2018-05-10T00:32:49.884Z,26.5
2018-05-10T00:33:39.559Z,26.5
2018-05-10T00:34:30.014Z,26.5
2018-05-10T00:35:19.522Z,26.5
2018-05-10T00:36:10.819Z,26.5
2018-05-10T00:36:59.937Z,26.5
2018-05-10T00:37:50.265Z,26.5
2018-05-10T00:38:40.365Z,26.5
2018-05-10T00:39:30.445Z,26.5
2018-05-10T00:40:20.430Z,26.5
2018-05-10T00:41:10.292Z,26.6
2018-05-10T00:42:00.333Z,26.5
2018-05-10T00:43:54.400Z,26.5
2018-05-10T00:44:04.135Z,26.6
2018-05-10T00:44:55.703Z,26.5
2018-05-10T00:45:44.847Z,26.5
2018-05-10T00:46:35.315Z,26.5
2018-05-10T00:47:24.690Z,26.5
2018-05-10T00:48:15.616Z,26.5
2018-05-10T00:49:05.668Z,26.5
2018-05-10T00:49:54.872Z,26.5
2018-05-10T00:50:45.496Z,26.5
2018-05-10T00:51:35.299Z,26.5
2018-05-10T00:52:40.949Z,26.5
2018-05-10T00:53:15.636Z,26.5
2018-05-10T00:54:05.509Z,26.5
2018-05-10T00:54:55.818Z,26.5
2018-05-10T00:55:45.919Z,26.5
2018-05-10T00:56:36.238Z,26.5
2018-05-10T00:57:25.480Z,26.5
2018-05-10T00:58:16.096Z,26.5
2018-05-10T00:59:06.504Z,26.5
2018-05-10T00:59:55.958Z,26.5
2018-05-10T01:00:45.447Z,26.5
2018-05-10T01:01:36.874Z,26.5
2018-05-10T01:02:25.842Z,26.5
2018-05-10T01:03:16.013Z,26.5
2018-05-10T01:04:05.904Z,26.5
2018-05-10T01:04:56.690Z,26.5
2018-05-10T01:05:45.456Z,26.5
2018-05-10T01:06:35.914Z,26.5
2018-05-10T01:07:25.998Z,26.5
2018-05-10T01:08:16.596Z,26.5
2018-05-10T01:09:06.341Z,26.5
2018-05-10T01:09:57.101Z,26.5
2018-05-10T01:10:46.232Z,26.5
2018-05-10T01:11:35.568Z,26.5
2018-05-10T01:12:25.891Z,26.5
2018-05-10T01:13:16.879Z,26.5
2018-05-10T01:14:06.756Z,26.5
2018-05-10T01:14:57.171Z,26.5
2018-05-10T01:15:46.291Z,26.5
2018-05-10T01:16:37.320Z,26.5
2018-05-10T01:17:26.738Z,26.5
2018-05-10T01:18:16.490Z,26.5
2018-05-10T01:19:06.839Z,26.5
2018-05-10T01:20:47.790Z,26.5
2018-05-10T01:21:37.384Z,26.5
2018-05-10T01:22:27.654Z,26.5
2018-05-10T01:23:17.184Z,26.5
2018-05-10T01:24:07.204Z,26.5
2018-05-10T01:24:57.888Z,26.5
2018-05-10T01:25:48.406Z,26.5
2018-05-10T01:26:38.011Z,26.5
2018-05-10T01:27:27.786Z,26.5
2018-05-10T01:28:17.826Z,26.5
2018-05-10T01:29:08.730Z,26.5
2018-05-10T01:29:57.942Z,26.5
2018-05-10T01:30:48.416Z,26.5
2018-05-10T01:31:38.440Z,26.5
2018-05-10T01:32:42.617Z,26.5
2018-05-10T20:10:31.966Z,24.1
2018-05-10T20:11:23.447Z,24.1
2018-05-10T20:12:13.509Z,24.1
2018-05-10T20:13:03.292Z,24.1
2018-05-10T20:13:54.467Z,24.1
2018-05-10T20:14:43.165Z,24.1
2018-05-10T20:15:33.774Z,24.1
2018-05-10T20:16:23.816Z,24.1
2018-05-10T20:17:13.623Z,24.1
2018-05-10T20:18:04.000Z,24.1
2018-05-10T20:18:52.916Z,24.1
2018-05-10T20:19:42.466Z,24.1
2018-05-10T20:20:32.829Z,24.1
2018-05-10T20:21:23.471Z,24.1
2018-05-10T20:22:13.700Z,24.1
2018-05-10T20:23:03.526Z,24.1
2018-05-10T20:23:54.566Z,24.1
2018-05-10T20:24:43.500Z,24.1
2018-05-10T20:25:33.697Z,24.1
2018-05-10T20:26:23.743Z,24.1
2018-05-10T20:27:13.137Z,24.1
2018-05-10T20:28:03.769Z,24.1
2018-05-10T20:28:53.399Z,24.1
2018-05-10T20:29:43.858Z,24.1
2018-05-10T20:30:33.611Z,24.1
2018-05-10T20:31:23.588Z,24
2018-05-10T20:32:15.419Z,24
2018-05-10T20:33:04.243Z,24.1
2018-05-10T20:33:54.168Z,24.1
2018-05-10T20:34:44.192Z,24
2018-05-10T20:35:34.705Z,24
2018-05-10T20:36:24.860Z,24
2018-05-10T20:37:14.952Z,24
2018-05-10T20:38:03.776Z,24
2018-05-10T20:38:54.978Z,24
2018-05-10T20:39:44.797Z,24
2018-05-10T20:40:34.283Z,24
2018-05-10T20:41:24.735Z,24
2018-05-10T20:42:14.861Z,24.1
2018-05-10T20:43:05.414Z,24
2018-05-10T20:43:55.382Z,24
2018-05-10T20:44:45.401Z,24
2018-05-10T20:45:35.507Z,24
2018-05-10T20:46:25.255Z,24
2018-05-10T20:47:15.634Z,24
2018-05-10T20:48:05.389Z,24
2018-05-10T20:48:56.339Z,24
2018-05-10T20:49:45.328Z,24
2018-05-10T20:50:36.095Z,24
2018-05-10T20:51:25.066Z,24
2018-05-10T20:52:15.788Z,24
2018-05-10T20:53:05.836Z,24
2018-05-10T20:53:55.963Z,24
2018-05-10T20:54:46.492Z,24
2018-05-10T20:55:36.369Z,24
2018-05-10T20:56:26.008Z,24
2018-05-10T20:57:16.088Z,23.9
2018-05-10T20:58:05.846Z,24
2018-05-10T20:58:56.374Z,23.9
2018-05-10T20:59:46.315Z,24
2018-05-10T21:00:36.396Z,23.9
2018-05-10T21:01:26.727Z,23.9
2018-05-10T21:02:16.246Z,23.9
2018-05-10T21:03:06.807Z,23.9
2018-05-10T21:03:55.980Z,23.9
2018-05-10T21:04:46.759Z,23.9
2018-05-10T21:05:37.089Z,23.9
2018-05-10T21:06:26.496Z,23.9
2018-05-10T21:07:16.262Z,23.9
2018-05-10T21:08:06.909Z,23.9
2018-05-10T21:08:56.663Z,23.9
2018-05-10T21:09:47.579Z,23.9
2018-05-10T21:10:37.695Z,23.8
2018-05-10T21:11:26.598Z,23.8
2018-05-10T21:12:17.513Z,23.8
2018-05-10T21:13:07.099Z,23.8
2018-05-10T21:13:57.349Z,23.8
2018-05-10T21:14:47.222Z,23.8
2018-05-10T21:15:37.781Z,23.8
2018-05-10T21:16:28.861Z,23.8
2018-05-10T21:17:18.167Z,23.8
2018-05-10T21:18:08.223Z,23.8
2018-05-10T21:18:58.588Z,23.8
2018-05-10T21:19:48.045Z,23.8
2018-05-10T21:20:38.430Z,23.8
2018-05-10T21:21:28.597Z,23.8
2018-05-10T21:22:18.522Z,23.8
2018-05-10T21:23:09.524Z,23.8
2018-05-10T21:23:58.110Z,23.8
2018-05-10T21:24:49.004Z,23.7
2018-05-10T21:25:38.232Z,23.7
2018-05-10T21:26:28.865Z,23.8
2018-05-10T21:27:18.933Z,23.7
2018-05-10T21:28:08.674Z,23.7
2018-05-10T21:28:58.737Z,23.7
2018-05-10T21:29:49.418Z,23.7
2018-05-10T21:30:38.874Z,23.7
2018-05-10T21:31:28.970Z,23.7
2018-05-10T21:32:19.566Z,23.7
2018-05-10T21:33:09.649Z,23.7
2018-05-10T21:34:00.368Z,23.6
2018-05-10T21:34:49.761Z,23.7
2018-05-10T21:35:39.248Z,23.6
2018-05-10T21:36:29.703Z,23.7
2018-05-10T21:37:19.955Z,23.7
2018-05-10T21:38:09.716Z,23.6
2018-05-10T21:39:00.097Z,23.7
2018-05-10T21:39:49.857Z,23.6
2018-05-10T21:40:39.711Z,23.6
2018-05-10T21:41:29.765Z,23.6
2018-05-10T21:42:20.068Z,23.6
2018-05-10T21:43:10.149Z,23.7
2018-05-10T21:44:00.179Z,23.7
2018-05-10T21:44:51.865Z,23.6
2018-05-10T21:45:40.294Z,23.6
2018-05-10T21:46:30.366Z,23.6
2018-05-10T21:47:20.723Z,23.6
2018-05-10T21:48:10.488Z,23.6
2018-05-10T21:49:00.253Z,23.6
2018-05-10T21:49:50.671Z,23.6
2018-05-10T21:50:40.103Z,23.6
2018-05-10T21:51:30.480Z,23.6
2018-05-10T21:52:20.832Z,23.6
2018-05-10T21:53:11.302Z,23.6
2018-05-10T21:53:59.902Z,23.6
2018-05-10T21:54:51.441Z,23.6
2018-05-10T21:55:41.045Z,23.6
2018-05-10T21:56:31.406Z,23.6
2018-05-10T21:57:20.943Z,23.6
2018-05-10T21:58:11.264Z,23.6
2018-05-10T21:59:01.340Z,23.6
2018-05-10T21:59:51.396Z,23.6
2018-05-10T22:00:41.726Z,23.6
2018-05-10T22:01:31.600Z,23.6
2018-05-10T22:02:21.824Z,23.6
2018-05-10T22:03:11.880Z,23.6
2018-05-10T22:04:01.722Z,23.6
2018-05-10T22:04:51.562Z,23.6
2018-05-10T22:05:41.832Z,23.6
2018-05-10T22:06:31.561Z,23.6
2018-05-10T22:07:21.700Z,23.6
2018-05-10T22:08:11.689Z,23.6
2018-05-10T22:09:02.611Z,23.6
2018-05-10T22:09:52.475Z,23.6
2018-05-10T22:10:42.195Z,23.6
2018-05-10T22:11:31.961Z,23.6
2018-05-10T22:12:22.126Z,23.5
2018-05-10T22:13:12.682Z,23.5
2018-05-10T22:14:02.175Z,23.5
2018-05-10T22:14:52.619Z,23.6
2018-05-10T22:15:42.626Z,23.5
2018-05-10T22:16:32.679Z,23.5
2018-05-10T22:17:23.050Z,23.5
2018-05-10T22:18:12.797Z,23.5
2018-05-10T22:19:03.203Z,23.5
2018-05-10T22:19:52.356Z,23.5
2018-05-10T22:20:43.071Z,23.5
2018-05-10T22:21:33.306Z,23.5
2018-05-10T22:22:23.363Z,23.5
2018-05-10T22:23:13.165Z,23.5
2018-05-10T22:24:03.490Z,23.5
2018-05-10T22:24:53.538Z,23.5
2018-05-10T22:25:43.332Z,23.5
2018-05-10T22:26:33.422Z,23.5
2018-05-10T22:27:22.880Z,23.5
2018-05-10T22:28:13.499Z,23.5
2018-05-10T22:29:03.332Z,23.5
2018-05-10T22:29:53.931Z,23.5
2018-05-10T22:30:43.995Z,23.5
2018-05-10T22:31:34.083Z,23.5
2018-05-10T22:32:24.135Z,23.5
2018-05-10T22:33:13.930Z,23.5
2018-05-10T22:34:03.700Z,23.4
2018-05-10T22:34:54.056Z,23.5
2018-05-10T22:35:44.381Z,23.4
2018-05-10T22:36:33.860Z,23.4
2018-05-10T22:37:24.223Z,23.5
2018-05-10T22:38:14.576Z,23.4
2018-05-10T22:39:04.083Z,23.5
2018-05-10T22:39:54.740Z,23.4
2018-05-10T22:40:44.207Z,23.5
2018-05-10T22:41:34.829Z,23.5
2018-05-10T22:42:24.624Z,23.5
2018-05-10T22:43:14.407Z,23.5
2018-05-10T22:44:04.449Z,23.4
2018-05-10T22:44:55.072Z,23.5
2018-05-10T22:45:44.852Z,23.4
2018-05-10T22:46:35.197Z,23.4
2018-05-10T22:47:24.147Z,23.4
2018-05-10T22:48:15.329Z,23.4
2018-05-10T22:49:05.440Z,23.4
2018-05-10T22:49:55.177Z,23.4
2018-05-10T22:50:45.279Z,23.4
2018-05-10T22:51:35.578Z,23.4
2018-05-10T22:52:25.392Z,23.4
2018-05-10T22:53:15.724Z,23.4
2018-05-10T22:54:05.497Z,23.4
2018-05-10T22:54:55.843Z,23.4
2018-05-10T22:55:45.949Z,23.4
2018-05-10T22:56:35.700Z,23.4
2018-05-10T22:57:25.768Z,23.4
2018-05-10T22:58:16.115Z,23.4
2018-05-10T22:59:05.883Z,23.4
2018-05-10T22:59:56.803Z,23.4
2018-05-10T23:00:45.815Z,23.4
2018-05-10T23:01:35.641Z,23.4
2018-05-10T23:02:26.422Z,23.4
2018-05-10T23:03:15.936Z,23.4
2018-05-10T23:04:06.561Z,23.4
2018-05-10T23:04:56.626Z,23.4
2018-05-10T23:05:46.668Z,23.4
2018-05-10T23:06:36.473Z,23.4
2018-05-10T23:07:26.506Z,23.4
2018-05-10T23:08:16.570Z,23.4
2018-05-10T23:09:06.065Z,23.4
2018-05-10T23:09:56.706Z,23.4
2018-05-10T23:10:46.508Z,23.4
2018-05-10T23:11:36.275Z,23.4
2018-05-10T23:12:26.883Z,23.4
2018-05-10T23:13:16.982Z,23.4
2018-05-10T23:14:07.288Z,23.4
2018-05-10T23:14:56.789Z,23.4
2018-05-10T23:15:47.133Z,23.4
2018-05-10T23:16:37.465Z,23.4
2018-05-10T23:17:27.278Z,23.4
2018-05-10T23:18:17.580Z,23.4
2018-05-10T23:19:07.444Z,23.4
2018-05-10T23:19:57.442Z,23.4
2018-05-10T23:20:47.246Z,23.4
2018-05-10T23:21:37.586Z,23.4
2018-05-10T23:22:27.360Z,23.4
2018-05-10T23:23:17.696Z,23.4
2018-05-10T23:24:07.797Z,23.4
2018-05-10T23:24:57.283Z,23.4
2018-05-10T23:25:48.275Z,23.4
2018-05-10T23:26:37.957Z,23.4
2018-05-10T23:27:28.308Z,23.4
2018-05-10T23:28:18.388Z,23.4
2018-05-10T23:29:07.609Z,23.4
2018-05-10T23:29:57.917Z,23.4
2018-05-10T23:30:48.277Z,23.4
2018-05-10T23:31:38.382Z,23.4
2018-05-10T23:32:28.394Z,23.4
2018-05-10T23:33:18.762Z,23.4
2018-05-10T23:34:08.800Z,23.4
2018-05-10T23:34:58.286Z,23.4
2018-05-10T23:35:48.099Z,23.4
2018-05-10T23:36:38.702Z,23.4
2018-05-10T23:37:28.601Z,23.4
2018-05-10T23:38:18.288Z,23.4
2018-05-10T23:39:09.207Z,23.4
2018-05-10T23:39:59.236Z,23.4
2018-05-10T23:40:49.306Z,23.4
2018-05-10T23:41:39.139Z,23.4
2018-05-10T23:42:29.457Z,23.4
2018-05-10T23:43:18.981Z,23.4
2018-05-10T23:44:09.601Z,23.4
2018-05-10T23:44:59.354Z,23.4
2018-05-10T23:45:49.127Z,23.4
2018-05-10T23:46:39.475Z,23.4
2018-05-10T23:47:29.330Z,23.4
2018-05-10T23:48:19.911Z,23.4
2018-05-10T23:49:09.683Z,23.4
2018-05-10T23:50:00.010Z,23.4
2018-05-10T23:50:49.803Z,23.4
2018-05-10T23:51:39.857Z,23.4
2018-05-10T23:52:29.383Z,23.4
2018-05-10T23:53:20.252Z,23.4
2018-05-10T23:54:10.071Z,23.4
2018-05-10T23:55:00.133Z,23.4
2018-05-10T23:55:50.456Z,23.4
2018-05-10T23:56:40.499Z,23.4
2018-05-10T23:57:30.574Z,23.4
2018-05-10T23:58:19.820Z,23.4
2018-05-10T23:59:10.506Z,23.4
